Terminal Aerodrome Forecast
Issued by NWS Austin/San Antonio, TX

Home | Current Version | Previous Version | Text Only | Print | Product List | Glossary On
Versions: 1 2 3 4 5 6 7 8 9 10 11 12 13 14 15 16 17 18
000
FTUS44 KEWX 061120
TAFDRT
TAF
KDRT 061120Z 0612/0712 12011KT P6SM BKN020
     FM061800 14014G24KT P6SM SCT040 SCT250
     FM070200 12011KT P6SM FEW250
     FM071100 12010KT P6SM BKN020=

USA.gov is the U.S. government's official web portal to all federal, state and local government web resources and services.